Terminal Aerodrome Forecast
Issued by NWS Tuscon, AZ

Home | Current Version | Previous Version | Text Only | Print | Product List | Glossary On
Versions: 1 2 3 4 5 6 7 8 9 10 11 12
000
FTUS45 KTWC 071720
TAFDUG
TAF
KDUG 071720Z 0718/0818 18008KT P6SM SCT100 BKN200
     FM072000 25011KT P6SM FEW100 SCT200
     FM080100 35007KT P6SM FEW100 BKN200
     FM080800 VRB04KT P6SM BKN200=

USA.gov is the U.S. government's official web portal to all federal, state and local government web resources and services.